Terminal Aerodrome Forecast
Issued by NWS

Home | Current Version | Previous Version | Text Only | Print | Product List | Glossary On
Versions: 1 2 3 4 5 6 7 8 9 10 11 12 13 14 15 16
000
FTUS46 KOTX 201138
TAFCOE
TAF
KCOE 201138Z 2012/2112 21010KT P6SM SCT015
     FM201800 22009KT P6SM SCT050 BKN150
     FM210300 13005KT P6SM SCT150 BKN200
     FM210800 06008KT P6SM SCT150 OVC200
      AMD LTD TO CLD VIS AND WIND=

USA.gov is the U.S. government's official web portal to all federal, state and local government web resources and services.